createdAt,value
2022-09-25T00:04:33.791Z,1.00
2022-09-25T00:09:37.828Z,1.30
2022-09-25T00:14:41.131Z,1.00
2022-09-25T00:19:52.594Z,0.82
2022-09-25T00:24:56.147Z,0.90
2022-09-25T00:30:00.580Z,0.75
2022-09-25T00:35:06.414Z,1.00
2022-09-25T00:40:11.384Z,0.57
2022-09-25T00:45:21.506Z,1.00
2022-09-25T00:50:35.182Z,0.80
2022-09-25T00:55:42.784Z,1.10
2022-09-25T01:00:46.990Z,0.68
2022-09-25T01:05:53.613Z,0.65
2022-09-25T01:10:57.878Z,0.60
2022-09-25T01:16:10.708Z,0.65
2022-09-25T01:21:38.738Z,0.80
2022-09-25T01:27:22.146Z,0.80
2022-09-25T01:32:33.171Z,0.82
2022-09-25T01:37:45.354Z,0.70
2022-09-25T01:42:53.538Z,0.88
2022-09-25T01:48:02.476Z,1.10
2022-09-25T01:53:13.408Z,0.90
2022-09-25T01:58:24.260Z,0.90
2022-09-25T02:03:34.178Z,0.95
2022-09-25T02:08:44.901Z,0.98
2022-09-25T02:13:51.875Z,1.00
2022-09-25T02:19:14.793Z,0.85
2022-09-25T02:24:23.087Z,1.02
2022-09-25T02:29:27.569Z,0.90
2022-09-25T02:34:33.257Z,0.90
2022-09-25T02:39:37.537Z,0.90
2022-09-25T02:44:55.696Z,0.70
2022-09-25T02:50:13.384Z,0.77
2022-09-25T02:55:24.465Z,0.60
2022-09-25T03:00:29.390Z,0.80
2022-09-25T03:05:35.260Z,0.90
2022-09-25T03:10:40.123Z,0.70
2022-09-25T03:20:51.540Z,1.38
2022-09-25T03:25:56.577Z,0.80
2022-09-25T03:31:04.974Z,0.70
2022-09-25T03:36:13.844Z,0.65
2022-09-25T03:41:22.150Z,0.70
2022-09-25T03:46:28.241Z,0.80
2022-09-25T03:51:34.548Z,0.60
2022-09-25T03:56:38.668Z,0.70
2022-09-25T04:01:43.417Z,0.73
2022-09-25T04:11:52.747Z,0.60
2022-09-25T04:16:56.841Z,0.80
2022-09-25T04:22:02.211Z,0.60
2022-09-25T04:27:06.367Z,0.60
2022-09-25T04:32:27.099Z,0.50
2022-09-25T04:37:32.597Z,0.60
2022-09-25T04:42:35.919Z,0.60
2022-09-25T04:47:40.022Z,0.60
2022-09-25T04:52:44.703Z,0.50
2022-09-25T04:57:59.858Z,0.70
2022-09-25T05:03:05.017Z,0.50
2022-09-25T05:08:11.726Z,0.50
2022-09-25T05:13:15.125Z,0.60
2022-09-25T05:18:21.548Z,0.55
2022-09-25T05:23:26.393Z,0.70
2022-09-25T05:33:34.690Z,0.73
2022-09-25T05:38:41.818Z,1.02
2022-09-25T05:43:47.688Z,1.02
2022-09-25T05:48:52.061Z,0.90
2022-09-25T05:53:57.104Z,0.90
2022-09-25T05:59:01.718Z,0.90
2022-09-25T06:04:05.257Z,1.10
2022-09-25T06:09:12.135Z,1.00
2022-09-25T06:14:16.695Z,1.08
2022-09-25T06:19:21.782Z,1.00
2022-09-25T06:24:26.570Z,1.00
2022-09-25T06:29:30.716Z,1.02
2022-09-25T06:34:34.051Z,1.08
2022-09-25T06:39:39.498Z,0.90
2022-09-25T06:44:43.961Z,0.80
2022-09-25T06:49:49.142Z,0.90
2022-09-25T06:54:54.078Z,0.60
2022-09-25T06:59:58.418Z,0.63
2022-09-25T07:05:01.732Z,1.10
2022-09-25T07:10:10.255Z,1.70
2022-09-25T07:15:14.594Z,2.67
2022-09-25T07:20:18.818Z,2.35
2022-09-25T07:25:24.292Z,2.47
2022-09-25T07:30:30.767Z,1.75
2022-09-25T07:35:36.393Z,1.50
2022-09-25T07:40:42.749Z,1.20
2022-09-25T07:45:53.114Z,1.65
2022-09-25T07:50:57.425Z,1.45
2022-09-25T07:56:06.891Z,1.50
2022-09-25T08:01:13.483Z,2.20
2022-09-25T08:06:17.781Z,2.85
2022-09-25T08:11:24.117Z,2.70
2022-09-25T08:16:28.420Z,2.67
2022-09-25T08:21:32.654Z,3.20
2022-09-25T08:26:38.527Z,2.60
2022-09-25T08:31:42.775Z,2.42
2022-09-25T08:36:46.845Z,2.50
2022-09-25T08:41:55.955Z,3.60
2022-09-25T08:47:21.194Z,5.05
2022-09-25T08:57:35.971Z,3.03
2022-09-25T09:02:43.957Z,2.83
2022-09-25T09:07:55.594Z,2.90
2022-09-25T09:13:07.060Z,2.70
2022-09-25T09:18:21.590Z,2.42
2022-09-25T09:23:31.582Z,2.40
2022-09-25T09:29:00.854Z,2.50
2022-09-25T09:34:24.099Z,2.80
2022-09-25T09:39:44.504Z,2.92
2022-09-25T09:44:59.842Z,2.70
2022-09-25T09:50:24.393Z,2.88
2022-09-25T09:55:40.028Z,2.38
2022-09-25T10:00:46.272Z,2.20
2022-09-25T10:05:53.362Z,1.70
2022-09-25T10:11:00.145Z,2.38
2022-09-25T10:16:09.339Z,2.70
2022-09-25T10:21:17.232Z,2.97
2022-09-25T10:26:30.013Z,3.83
2022-09-25T10:31:37.910Z,4.00
2022-09-25T10:36:44.334Z,3.38
2022-09-25T10:41:48.571Z,3.38
2022-09-25T10:47:11.817Z,3.00
2022-09-25T10:52:18.217Z,3.08
2022-09-25T10:57:35.111Z,3.80
2022-09-25T11:02:43.246Z,3.53
2022-09-25T11:07:52.494Z,2.80
2022-09-25T11:12:58.013Z,2.80
2022-09-25T11:18:04.467Z,2.50
2022-09-25T11:23:27.893Z,3.00
2022-09-25T11:28:38.568Z,3.60
2022-09-25T11:33:51.855Z,3.53
2022-09-25T11:39:15.295Z,2.95
2022-09-25T11:44:31.755Z,3.50
2022-09-25T11:49:39.505Z,3.22
2022-09-25T11:55:12.194Z,3.33
2022-09-25T12:00:22.166Z,3.92
2022-09-25T12:05:53.205Z,3.70
2022-09-25T12:11:06.260Z,4.03
2022-09-25T12:16:21.622Z,4.03
2022-09-25T12:21:34.877Z,3.85
2022-09-25T12:26:53.443Z,4.30
2022-09-25T12:32:05.564Z,4.75
2022-09-25T12:37:26.718Z,4.63
2022-09-25T12:42:45.124Z,4.50
2022-09-25T12:48:02.961Z,4.65
2022-09-25T12:53:23.549Z,4.82
2022-09-25T12:58:46.618Z,5.85
2022-09-25T13:03:59.322Z,4.82
2022-09-25T13:09:17.997Z,5.30
2022-09-25T13:14:31.755Z,5.53
2022-09-25T13:19:39.169Z,5.78
2022-09-25T13:24:51.196Z,5.50
2022-09-25T13:29:59.913Z,5.85
2022-09-25T13:35:06.806Z,5.38
2022-09-25T13:40:37.270Z,5.40
2022-09-25T13:45:42.217Z,5.45
2022-09-25T13:50:47.888Z,6.97
2022-09-25T13:56:28.627Z,6.85
2022-09-25T14:01:40.454Z,8.05
2022-09-25T14:06:46.654Z,7.72
2022-09-25T14:12:03.532Z,6.75
2022-09-25T14:17:16.066Z,5.95
2022-09-25T14:22:29.311Z,5.68
2022-09-25T14:27:33.713Z,5.35
2022-09-25T14:32:55.726Z,5.53
2022-09-25T14:38:21.521Z,5.22
2022-09-25T14:43:54.858Z,5.72
2022-09-25T14:49:07.230Z,5.43
2022-09-25T14:54:16.290Z,5.38
2022-09-25T14:59:26.667Z,5.90
2022-09-25T15:04:33.508Z,5.72
2022-09-25T15:09:47.966Z,5.82
2022-09-25T15:15:02.346Z,5.88
2022-09-25T15:20:15.595Z,5.90
2022-09-25T15:25:27.159Z,6.70
2022-09-25T15:30:43.063Z,6.95
2022-09-25T15:35:56.440Z,6.40
2022-09-25T15:41:01.939Z,6.47
2022-09-25T15:46:30.515Z,5.88
2022-09-25T15:51:39.063Z,6.53
2022-09-25T15:56:49.153Z,5.88
2022-09-25T16:02:11.907Z,6.30
2022-09-25T16:07:26.307Z,6.70
2022-09-25T16:12:35.056Z,6.05
2022-09-25T16:17:44.076Z,5.75
2022-09-25T16:22:53.782Z,6.47
2022-09-25T16:28:04.368Z,6.88
2022-09-25T16:33:22.096Z,6.90
2022-09-25T16:38:33.164Z,6.35
2022-09-25T16:43:39.814Z,6.95
2022-09-25T16:48:44.569Z,6.43
2022-09-25T16:58:55.285Z,6.57
2022-09-25T17:09:12.989Z,7.60
2022-09-25T17:14:26.423Z,8.55
2022-09-25T17:19:31.538Z,6.75
2022-09-25T17:24:36.588Z,7.25
2022-09-25T17:29:41.193Z,6.80
2022-09-25T17:34:47.371Z,6.97
2022-09-25T17:39:53.872Z,6.90
2022-09-25T17:44:57.819Z,6.80
2022-09-25T17:50:02.424Z,7.53
2022-09-25T17:55:18.504Z,6.60
2022-09-25T18:00:23.267Z,7.20
2022-09-25T18:10:37.718Z,6.90
2022-09-25T18:15:49.266Z,6.47
2022-09-25T18:21:25.647Z,5.75
2022-09-25T18:26:32.476Z,6.15
2022-09-25T18:31:37.036Z,7.00
2022-09-25T18:36:41.542Z,6.05
2022-09-25T18:41:48.942Z,6.15
2022-09-25T18:46:53.836Z,5.95
2022-09-25T18:51:57.505Z,6.20
2022-09-25T18:57:03.287Z,6.85
2022-09-25T19:02:08.575Z,6.15
2022-09-25T19:07:13.329Z,6.68
2022-09-25T19:12:19.169Z,6.65
2022-09-25T19:17:23.929Z,6.80
2022-09-25T19:27:33.506Z,6.55
2022-09-25T19:32:39.596Z,5.90
2022-09-25T19:37:43.833Z,5.43
2022-09-25T19:42:49.954Z,6.90
2022-09-25T19:47:54.025Z,6.22
2022-09-25T19:52:57.386Z,6.87
2022-09-25T19:58:02.809Z,6.40
2022-09-25T20:03:06.515Z,6.80
2022-09-25T20:08:10.953Z,6.55
2022-09-25T20:13:15.733Z,6.72
2022-09-25T20:23:22.937Z,6.55
2022-09-25T20:28:28.411Z,6.95
2022-09-25T20:33:34.668Z,6.47
2022-09-25T20:38:39.311Z,6.38
2022-09-25T20:43:44.744Z,7.60
2022-09-25T20:48:52.111Z,7.30
2022-09-25T20:53:56.914Z,7.10
2022-09-25T21:09:20.457Z,8.40
2022-09-25T21:14:27.470Z,7.85
2022-09-25T21:19:32.581Z,7.40
2022-09-25T21:24:36.160Z,7.45
2022-09-25T21:29:41.673Z,7.68
2022-09-25T21:34:45.040Z,7.30
2022-09-25T21:39:49.117Z,8.38
2022-09-25T21:44:54.367Z,8.52
2022-09-25T21:49:58.547Z,8.10
2022-09-25T21:55:01.831Z,9.90
2022-09-25T22:00:09.592Z,10.07
2022-09-25T22:05:13.097Z,9.52
2022-09-25T22:10:17.284Z,9.68
2022-09-25T22:15:22.744Z,9.82
2022-09-25T22:20:27.117Z,9.00
2022-09-25T22:25:31.169Z,8.73
2022-09-25T22:30:37.736Z,8.60
2022-09-25T22:35:41.817Z,8.77
2022-09-25T22:40:45.964Z,9.00
2022-09-25T22:45:55.220Z,8.25
2022-09-25T22:51:02.032Z,8.77
2022-09-25T22:56:10.925Z,7.80
2022-09-25T23:01:20.106Z,8.65
2022-09-25T23:06:24.588Z,7.72
2022-09-25T23:11:29.638Z,7.97
2022-09-25T23:16:35.615Z,7.50
2022-09-25T23:21:39.735Z,7.97
2022-09-25T23:26:44.057Z,7.70
2022-09-25T23:31:50.617Z,8.02
2022-09-25T23:36:54.797Z,8.20
2022-09-25T23:41:58.923Z,7.88
2022-09-25T23:47:04.571Z,8.02
2022-09-25T23:52:08.854Z,7.78
2022-09-25T23:57:13.218Z,8.02
